sensor_id;sensor_type;location;lat;lon;timestamp;temperature;humidity
18888;DHT22;9576;47.792;9.628;2022-08-05T00:00:26;21.70;99.90
18888;DHT22;9576;47.792;9.628;2022-08-05T00:03:29;21.70;99.90
18888;DHT22;9576;47.792;9.628;2022-08-05T00:06:31;21.60;99.90
18888;DHT22;9576;47.792;9.628;2022-08-05T00:09:33;21.60;99.90
18888;DHT22;9576;47.792;9.628;2022-08-05T00:12:35;21.50;99.90
18888;DHT22;9576;47.792;9.628;2022-08-05T00:15:39;21.50;99.90
18888;DHT22;9576;47.792;9.628;2022-08-05T00:18:42;21.40;99.90
18888;DHT22;9576;47.792;9.628;2022-08-05T00:21:45;21.50;99.90
18888;DHT22;9576;47.792;9.628;2022-08-05T00:24:47;21.50;99.90
18888;DHT22;9576;47.792;9.628;2022-08-05T00:27:49;21.40;99.90
18888;DHT22;9576;47.792;9.628;2022-08-05T00:30:52;21.40;99.90
18888;DHT22;9576;47.792;9.628;2022-08-05T00:33:55;21.40;99.90
18888;DHT22;9576;47.792;9.628;2022-08-05T00:36:57;21.30;99.90
18888;DHT22;9576;47.792;9.628;2022-08-05T00:39:59;21.30;99.90
18888;DHT22;9576;47.792;9.628;2022-08-05T00:43:01;21.30;99.90
18888;DHT22;9576;47.792;9.628;2022-08-05T00:46:05;21.30;99.90
18888;DHT22;9576;47.792;9.628;2022-08-05T00:49:07;21.30;99.90
18888;DHT22;9576;47.792;9.628;2022-08-05T00:52:09;21.20;99.90
18888;DHT22;9576;47.792;9.628;2022-08-05T00:55:11;21.30;99.90
18888;DHT22;9576;47.792;9.628;2022-08-05T00:58:14;21.30;99.90
18888;DHT22;9576;47.792;9.628;2022-08-05T01:01:19;21.30;99.90
18888;DHT22;9576;47.792;9.628;2022-08-05T01:04:21;21.30;99.90
18888;DHT22;9576;47.792;9.628;2022-08-05T01:07:23;21.30;99.90
18888;DHT22;9576;47.792;9.628;2022-08-05T01:10:29;21.30;99.90
18888;DHT22;9576;47.792;9.628;2022-08-05T01:13:37;21.30;99.90
18888;DHT22;9576;47.792;9.628;2022-08-05T01:16:48;21.30;99.90
18888;DHT22;9576;47.792;9.628;2022-08-05T01:20:00;21.30;99.90
18888;DHT22;9576;47.792;9.628;2022-08-05T01:23:12;21.30;99.90
18888;DHT22;9576;47.792;9.628;2022-08-05T01:26:26;21.40;99.90
18888;DHT22;9576;47.792;9.628;2022-08-05T01:29:35;21.40;99.90
18888;DHT22;9576;47.792;9.628;2022-08-05T01:32:40;21.30;99.90
18888;DHT22;9576;47.792;9.628;2022-08-05T01:35:43;21.30;99.90
18888;DHT22;9576;47.792;9.628;2022-08-05T01:38:47;21.20;99.90
18888;DHT22;9576;47.792;9.628;2022-08-05T01:41:51;21.30;99.90
18888;DHT22;9576;47.792;9.628;2022-08-05T01:44:56;21.30;99.90
18888;DHT22;9576;47.792;9.628;2022-08-05T01:48:00;21.30;99.90
18888;DHT22;9576;47.792;9.628;2022-08-05T01:51:03;21.20;99.90
18888;DHT22;9576;47.792;9.628;2022-08-05T01:54:07;21.10;99.90
18888;DHT22;9576;47.792;9.628;2022-08-05T01:57:12;21.10;99.90
18888;DHT22;9576;47.792;9.628;2022-08-05T02:00:17;21.10;99.90
18888;DHT22;9576;47.792;9.628;2022-08-05T02:03:22;21.00;99.90
18888;DHT22;9576;47.792;9.628;2022-08-05T02:06:25;21.20;99.90
18888;DHT22;9576;47.792;9.628;2022-08-05T02:09:27;21.30;99.90
18888;DHT22;9576;47.792;9.628;2022-08-05T02:12:36;21.40;99.90
18888;DHT22;9576;47.792;9.628;2022-08-05T02:15:44;21.40;99.90
18888;DHT22;9576;47.792;9.628;2022-08-05T02:18:49;21.40;99.90
18888;DHT22;9576;47.792;9.628;2022-08-05T02:21:58;21.50;99.90
18888;DHT22;9576;47.792;9.628;2022-08-05T02:25:05;21.40;99.90
18888;DHT22;9576;47.792;9.628;2022-08-05T02:28:09;21.40;99.90
18888;DHT22;9576;47.792;9.628;2022-08-05T02:31:18;21.40;99.90
18888;DHT22;9576;47.792;9.628;2022-08-05T02:34:23;21.40;99.90
18888;DHT22;9576;47.792;9.628;2022-08-05T02:37:27;21.50;99.90
18888;DHT22;9576;47.792;9.628;2022-08-05T02:40:30;21.50;99.90
18888;DHT22;9576;47.792;9.628;2022-08-05T02:43:32;21.50;99.90
18888;DHT22;9576;47.792;9.628;2022-08-05T02:46:38;21.60;99.90
18888;DHT22;9576;47.792;9.628;2022-08-05T02:49:42;21.60;99.90
18888;DHT22;9576;47.792;9.628;2022-08-05T02:52:46;21.60;99.90
18888;DHT22;9576;47.792;9.628;2022-08-05T02:55:49;21.70;99.90
18888;DHT22;9576;47.792;9.628;2022-08-05T02:58:53;21.80;99.90
18888;DHT22;9576;47.792;9.628;2022-08-05T03:01:58;22.00;99.90
18888;DHT22;9576;47.792;9.628;2022-08-05T03:05:01;22.10;99.90
18888;DHT22;9576;47.792;9.628;2022-08-05T03:08:05;22.20;99.90
18888;DHT22;9576;47.792;9.628;2022-08-05T03:11:16;22.30;99.90
18888;DHT22;9576;47.792;9.628;2022-08-05T03:14:18;22.40;99.90
18888;DHT22;9576;47.792;9.628;2022-08-05T03:17:22;22.50;99.90
18888;DHT22;9576;47.792;9.628;2022-08-05T03:20:24;22.60;99.90
18888;DHT22;9576;47.792;9.628;2022-08-05T03:23:27;22.80;99.90
18888;DHT22;9576;47.792;9.628;2022-08-05T03:26:29;23.00;99.90
18888;DHT22;9576;47.792;9.628;2022-08-05T03:29:31;23.10;99.90
18888;DHT22;9576;47.792;9.628;2022-08-05T03:32:35;23.30;99.90
18888;DHT22;9576;47.792;9.628;2022-08-05T03:35:38;23.40;99.90
18888;DHT22;9576;47.792;9.628;2022-08-05T03:38:41;23.50;99.90
18888;DHT22;9576;47.792;9.628;2022-08-05T03:41:43;23.40;99.90
18888;DHT22;9576;47.792;9.628;2022-08-05T03:44:45;23.40;99.90
18888;DHT22;9576;47.792;9.628;2022-08-05T03:47:49;23.40;99.90
18888;DHT22;9576;47.792;9.628;2022-08-05T03:50:54;23.40;99.90
18888;DHT22;9576;47.792;9.628;2022-08-05T03:54:04;23.40;99.90
18888;DHT22;9576;47.792;9.628;2022-08-05T03:57:09;23.40;99.90
18888;DHT22;9576;47.792;9.628;2022-08-05T04:00:14;23.40;99.90
18888;DHT22;9576;47.792;9.628;2022-08-05T04:03:19;23.30;99.90
18888;DHT22;9576;47.792;9.628;2022-08-05T04:06:22;23.30;99.90
18888;DHT22;9576;47.792;9.628;2022-08-05T04:09:25;23.30;99.90
18888;DHT22;9576;47.792;9.628;2022-08-05T04:12:30;23.40;99.90
18888;DHT22;9576;47.792;9.628;2022-08-05T04:15:33;23.30;99.90
18888;DHT22;9576;47.792;9.628;2022-08-05T04:18:37;23.20;99.90
18888;DHT22;9576;47.792;9.628;2022-08-05T04:21:39;23.20;99.90
18888;DHT22;9576;47.792;9.628;2022-08-05T04:24:42;23.20;99.90
18888;DHT22;9576;47.792;9.628;2022-08-05T04:27:45;23.20;99.90
18888;DHT22;9576;47.792;9.628;2022-08-05T04:30:47;23.10;99.90
18888;DHT22;9576;47.792;9.628;2022-08-05T04:33:51;23.20;99.90
18888;DHT22;9576;47.792;9.628;2022-08-05T04:36:53;23.10;99.90
18888;DHT22;9576;47.792;9.628;2022-08-05T04:39:55;23.10;99.90
18888;DHT22;9576;47.792;9.628;2022-08-05T04:42:58;23.00;99.90
18888;DHT22;9576;47.792;9.628;2022-08-05T04:46:00;22.90;99.90
18888;DHT22;9576;47.792;9.628;2022-08-05T04:49:06;22.70;99.90
18888;DHT22;9576;47.792;9.628;2022-08-05T04:52:08;22.60;99.90
18888;DHT22;9576;47.792;9.628;2022-08-05T04:55:10;22.60;99.90
18888;DHT22;9576;47.792;9.628;2022-08-05T04:58:14;22.60;99.90
18888;DHT22;9576;47.792;9.628;2022-08-05T05:01:17;22.60;99.90
18888;DHT22;9576;47.792;9.628;2022-08-05T05:04:20;22.60;99.90
18888;DHT22;9576;47.792;9.628;2022-08-05T05:07:23;22.50;99.90
18888;DHT22;9576;47.792;9.628;2022-08-05T05:10:25;22.40;99.90
18888;DHT22;9576;47.792;9.628;2022-08-05T05:13:27;22.40;99.90
18888;DHT22;9576;47.792;9.628;2022-08-05T05:16:29;22.40;99.90
18888;DHT22;9576;47.792;9.628;2022-08-05T05:19:33;22.30;99.90
18888;DHT22;9576;47.792;9.628;2022-08-05T05:22:35;22.20;99.90
18888;DHT22;9576;47.792;9.628;2022-08-05T05:25:39;22.20;99.90
18888;DHT22;9576;47.792;9.628;2022-08-05T05:28:41;22.20;99.90
18888;DHT22;9576;47.792;9.628;2022-08-05T05:31:43;22.20;99.90
18888;DHT22;9576;47.792;9.628;2022-08-05T05:34:47;22.30;99.90
18888;DHT22;9576;47.792;9.628;2022-08-05T05:37:50;22.30;99.90
18888;DHT22;9576;47.792;9.628;2022-08-05T05:40:53;22.30;99.90
18888;DHT22;9576;47.792;9.628;2022-08-05T05:43:55;22.20;99.90
18888;DHT22;9576;47.792;9.628;2022-08-05T05:46:57;22.30;99.90
18888;DHT22;9576;47.792;9.628;2022-08-05T05:50:01;22.40;99.90
18888;DHT22;9576;47.792;9.628;2022-08-05T05:53:03;22.60;99.90
18888;DHT22;9576;47.792;9.628;2022-08-05T05:56:05;22.60;99.90
18888;DHT22;9576;47.792;9.628;2022-08-05T05:59:08;22.60;99.90
18888;DHT22;9576;47.792;9.628;2022-08-05T06:02:11;22.70;99.90
18888;DHT22;9576;47.792;9.628;2022-08-05T06:05:15;22.80;99.90
18888;DHT22;9576;47.792;9.628;2022-08-05T06:08:17;22.70;99.90
18888;DHT22;9576;47.792;9.628;2022-08-05T06:11:19;22.70;99.90
18888;DHT22;9576;47.792;9.628;2022-08-05T06:14:22;22.80;99.90
18888;DHT22;9576;47.792;9.628;2022-08-05T06:17:24;22.90;99.90
18888;DHT22;9576;47.792;9.628;2022-08-05T06:20:27;23.10;99.90
18888;DHT22;9576;47.792;9.628;2022-08-05T06:23:30;23.20;99.90
18888;DHT22;9576;47.792;9.628;2022-08-05T06:26:32;23.40;99.90
18888;DHT22;9576;47.792;9.628;2022-08-05T06:29:34;23.40;99.90
18888;DHT22;9576;47.792;9.628;2022-08-05T06:32:37;23.40;99.90
18888;DHT22;9576;47.792;9.628;2022-08-05T06:35:40;23.40;99.90
18888;DHT22;9576;47.792;9.628;2022-08-05T06:38:42;23.50;99.90
18888;DHT22;9576;47.792;9.628;2022-08-05T06:41:45;23.50;99.90
18888;DHT22;9576;47.792;9.628;2022-08-05T06:44:47;23.50;99.90
18888;DHT22;9576;47.792;9.628;2022-08-05T06:47:49;23.40;99.90
18888;DHT22;9576;47.792;9.628;2022-08-05T06:50:52;23.50;99.90
18888;DHT22;9576;47.792;9.628;2022-08-05T06:53:55;23.60;99.90
18888;DHT22;9576;47.792;9.628;2022-08-05T06:56:57;23.70;99.90
18888;DHT22;9576;47.792;9.628;2022-08-05T07:00:00;23.80;99.90
18888;DHT22;9576;47.792;9.628;2022-08-05T07:03:03;23.80;99.90
18888;DHT22;9576;47.792;9.628;2022-08-05T07:06:07;23.80;99.90
18888;DHT22;9576;47.792;9.628;2022-08-05T07:09:09;23.90;99.90
18888;DHT22;9576;47.792;9.628;2022-08-05T07:12:11;23.90;99.90
18888;DHT22;9576;47.792;9.628;2022-08-05T07:15:34;23.90;99.90
18888;DHT22;9576;47.792;9.628;2022-08-05T07:18:53;24.00;99.90
18888;DHT22;9576;47.792;9.628;2022-08-05T07:21:57;24.10;99.90
18888;DHT22;9576;47.792;9.628;2022-08-05T07:24:59;24.20;99.90
18888;DHT22;9576;47.792;9.628;2022-08-05T07:28:02;24.20;99.90
18888;DHT22;9576;47.792;9.628;2022-08-05T07:31:06;24.30;99.90
18888;DHT22;9576;47.792;9.628;2022-08-05T07:34:08;24.40;99.90
18888;DHT22;9576;47.792;9.628;2022-08-05T07:37:12;24.40;99.90
18888;DHT22;9576;47.792;9.628;2022-08-05T07:40:14;24.50;99.90
18888;DHT22;9576;47.792;9.628;2022-08-05T07:43:16;24.50;99.90
18888;DHT22;9576;47.792;9.628;2022-08-05T07:46:18;24.60;99.90
18888;DHT22;9576;47.792;9.628;2022-08-05T07:49:20;24.70;99.90
18888;DHT22;9576;47.792;9.628;2022-08-05T07:52:24;24.70;99.90
18888;DHT22;9576;47.792;9.628;2022-08-05T07:55:26;24.90;99.90
18888;DHT22;9576;47.792;9.628;2022-08-05T07:58:29;25.00;99.90
18888;DHT22;9576;47.792;9.628;2022-08-05T08:01:31;25.10;99.90
18888;DHT22;9576;47.792;9.628;2022-08-05T08:04:33;25.10;99.90
18888;DHT22;9576;47.792;9.628;2022-08-05T08:07:36;25.20;99.90
18888;DHT22;9576;47.792;9.628;2022-08-05T08:10:39;25.30;99.90
18888;DHT22;9576;47.792;9.628;2022-08-05T08:13:41;25.30;99.90
18888;DHT22;9576;47.792;9.628;2022-08-05T08:16:43;25.40;99.90
18888;DHT22;9576;47.792;9.628;2022-08-05T08:19:45;25.50;99.90
18888;DHT22;9576;47.792;9.628;2022-08-05T08:22:53;25.60;99.90
18888;DHT22;9576;47.792;9.628;2022-08-05T08:25:55;25.60;99.90
18888;DHT22;9576;47.792;9.628;2022-08-05T08:28:58;25.70;99.90
18888;DHT22;9576;47.792;9.628;2022-08-05T08:32:00;25.80;99.90
18888;DHT22;9576;47.792;9.628;2022-08-05T08:35:03;25.90;99.90
18888;DHT22;9576;47.792;9.628;2022-08-05T08:38:07;25.90;99.90
18888;DHT22;9576;47.792;9.628;2022-08-05T08:41:10;25.90;99.90
18888;DHT22;9576;47.792;9.628;2022-08-05T08:44:16;25.80;99.90
18888;DHT22;9576;47.792;9.628;2022-08-05T08:47:22;25.90;99.90
18888;DHT22;9576;47.792;9.628;2022-08-05T08:50:25;25.90;99.90
18888;DHT22;9576;47.792;9.628;2022-08-05T08:53:35;26.00;99.90
18888;DHT22;9576;47.792;9.628;2022-08-05T08:56:38;26.00;99.90
18888;DHT22;9576;47.792;9.628;2022-08-05T08:59:41;26.30;99.90
18888;DHT22;9576;47.792;9.628;2022-08-05T09:02:44;26.30;99.90
18888;DHT22;9576;47.792;9.628;2022-08-05T09:05:47;26.40;99.90
18888;DHT22;9576;47.792;9.628;2022-08-05T09:08:50;26.50;99.90
18888;DHT22;9576;47.792;9.628;2022-08-05T09:11:52;26.60;99.90
18888;DHT22;9576;47.792;9.628;2022-08-05T09:14:55;26.80;99.90
18888;DHT22;9576;47.792;9.628;2022-08-05T09:17:57;26.90;99.90
18888;DHT22;9576;47.792;9.628;2022-08-05T09:20:59;27.00;99.90
18888;DHT22;9576;47.792;9.628;2022-08-05T09:24:04;27.30;99.90
18888;DHT22;9576;47.792;9.628;2022-08-05T09:27:08;27.60;99.90
18888;DHT22;9576;47.792;9.628;2022-08-05T09:30:10;28.00;99.90
18888;DHT22;9576;47.792;9.628;2022-08-05T09:33:17;28.20;99.90
18888;DHT22;9576;47.792;9.628;2022-08-05T09:36:20;28.50;99.90
18888;DHT22;9576;47.792;9.628;2022-08-05T09:39:24;28.50;99.90
18888;DHT22;9576;47.792;9.628;2022-08-05T09:42:37;28.30;99.90
18888;DHT22;9576;47.792;9.628;2022-08-05T09:45:41;28.20;99.90
18888;DHT22;9576;47.792;9.628;2022-08-05T09:48:44;28.20;99.90
18888;DHT22;9576;47.792;9.628;2022-08-05T09:51:46;28.50;99.90
18888;DHT22;9576;47.792;9.628;2022-08-05T09:54:58;28.60;99.90
18888;DHT22;9576;47.792;9.628;2022-08-05T09:58:09;28.90;99.90
18888;DHT22;9576;47.792;9.628;2022-08-05T10:01:11;29.30;99.90
18888;DHT22;9576;47.792;9.628;2022-08-05T10:04:15;29.30;99.90
18888;DHT22;9576;47.792;9.628;2022-08-05T10:07:17;29.40;99.90
18888;DHT22;9576;47.792;9.628;2022-08-05T10:10:24;29.50;99.90
18888;DHT22;9576;47.792;9.628;2022-08-05T10:13:29;29.60;99.90
18888;DHT22;9576;47.792;9.628;2022-08-05T10:16:33;29.70;99.90
18888;DHT22;9576;47.792;9.628;2022-08-05T10:19:35;29.60;99.90
18888;DHT22;9576;47.792;9.628;2022-08-05T10:22:39;29.40;99.90
18888;DHT22;9576;47.792;9.628;2022-08-05T10:25:42;29.20;99.90
18888;DHT22;9576;47.792;9.628;2022-08-05T10:28:46;29.30;99.90
18888;DHT22;9576;47.792;9.628;2022-08-05T10:31:48;29.30;99.90
18888;DHT22;9576;47.792;9.628;2022-08-05T10:34:51;29.30;99.90
18888;DHT22;9576;47.792;9.628;2022-08-05T10:37:54;29.10;99.90
18888;DHT22;9576;47.792;9.628;2022-08-05T10:41:05;29.30;99.90
18888;DHT22;9576;47.792;9.628;2022-08-05T10:44:11;29.60;99.90
18888;DHT22;9576;47.792;9.628;2022-08-05T10:47:14;30.00;99.90
18888;DHT22;9576;47.792;9.628;2022-08-05T10:50:17;30.40;99.90
18888;DHT22;9576;47.792;9.628;2022-08-05T10:53:37;30.70;99.90
18888;DHT22;9576;47.792;9.628;2022-08-05T10:56:45;30.90;99.90
18888;DHT22;9576;47.792;9.628;2022-08-05T10:59:47;31.00;99.90
18888;DHT22;9576;47.792;9.628;2022-08-05T11:03:12;31.00;99.90
18888;DHT22;9576;47.792;9.628;2022-08-05T11:06:15;31.20;99.90
18888;DHT22;9576;47.792;9.628;2022-08-05T11:09:19;31.20;99.90
18888;DHT22;9576;47.792;9.628;2022-08-05T11:12:44;31.20;99.90
18888;DHT22;9576;47.792;9.628;2022-08-05T11:15:46;31.00;99.90
18888;DHT22;9576;47.792;9.628;2022-08-05T11:19:24;31.20;99.90
18888;DHT22;9576;47.792;9.628;2022-08-05T11:22:42;31.30;99.90
18888;DHT22;9576;47.792;9.628;2022-08-05T11:25:59;31.30;99.90
18888;DHT22;9576;47.792;9.628;2022-08-05T11:29:04;31.40;99.50
18888;DHT22;9576;47.792;9.628;2022-08-05T11:32:23;31.40;98.70
18888;DHT22;9576;47.792;9.628;2022-08-05T11:35:53;31.30;99.40
18888;DHT22;9576;47.792;9.628;2022-08-05T11:38:55;31.30;98.80
18888;DHT22;9576;47.792;9.628;2022-08-05T11:41:57;31.20;98.00
18888;DHT22;9576;47.792;9.628;2022-08-05T11:45:04;31.20;98.50
18888;DHT22;9576;47.792;9.628;2022-08-05T11:48:07;31.40;99.50
18888;DHT22;9576;47.792;9.628;2022-08-05T11:51:10;31.80;99.10
18888;DHT22;9576;47.792;9.628;2022-08-05T11:54:13;32.20;99.70
18888;DHT22;9576;47.792;9.628;2022-08-05T11:57:16;32.20;99.00
18888;DHT22;9576;47.792;9.628;2022-08-05T12:00:30;32.20;98.20
18888;DHT22;9576;47.792;9.628;2022-08-05T12:03:41;32.20;97.40
18888;DHT22;9576;47.792;9.628;2022-08-05T12:06:43;32.20;97.30
18888;DHT22;9576;47.792;9.628;2022-08-05T12:09:52;32.40;97.50
18888;DHT22;9576;47.792;9.628;2022-08-05T12:13:03;32.20;98.10
18888;DHT22;9576;47.792;9.628;2022-08-05T12:16:07;32.30;98.80
18888;DHT22;9576;47.792;9.628;2022-08-05T12:19:11;32.20;99.90
18888;DHT22;9576;47.792;9.628;2022-08-05T12:22:13;32.20;98.20
18888;DHT22;9576;47.792;9.628;2022-08-05T12:25:16;32.40;98.10
18888;DHT22;9576;47.792;9.628;2022-08-05T12:28:34;32.80;96.00
18888;DHT22;9576;47.792;9.628;2022-08-05T12:31:38;33.00;95.50
18888;DHT22;9576;47.792;9.628;2022-08-05T12:34:47;33.00;96.20
18888;DHT22;9576;47.792;9.628;2022-08-05T12:37:49;33.30;99.50
18888;DHT22;9576;47.792;9.628;2022-08-05T12:40:52;33.50;99.10
18888;DHT22;9576;47.792;9.628;2022-08-05T12:44:00;33.60;98.20
18888;DHT22;9576;47.792;9.628;2022-08-05T12:47:05;33.60;97.20
18888;DHT22;9576;47.792;9.628;2022-08-05T12:50:12;33.80;96.30
18888;DHT22;9576;47.792;9.628;2022-08-05T12:53:15;33.90;96.90
18888;DHT22;9576;47.792;9.628;2022-08-05T12:56:20;33.70;96.40
18888;DHT22;9576;47.792;9.628;2022-08-05T12:59:24;33.70;95.90
18888;DHT22;9576;47.792;9.628;2022-08-05T13:02:28;34.00;96.30
18888;DHT22;9576;47.792;9.628;2022-08-05T13:05:30;34.10;98.20
18888;DHT22;9576;47.792;9.628;2022-08-05T13:08:37;34.30;96.90
18888;DHT22;9576;47.792;9.628;2022-08-05T13:11:42;34.50;96.80
18888;DHT22;9576;47.792;9.628;2022-08-05T13:14:45;34.70;98.70
18888;DHT22;9576;47.792;9.628;2022-08-05T13:17:53;35.20;97.10
18888;DHT22;9576;47.792;9.628;2022-08-05T13:20:56;35.60;95.90
18888;DHT22;9576;47.792;9.628;2022-08-05T13:23:58;35.80;93.70
18888;DHT22;9576;47.792;9.628;2022-08-05T13:27:00;35.90;94.70
18888;DHT22;9576;47.792;9.628;2022-08-05T13:30:04;36.10;92.90
18888;DHT22;9576;47.792;9.628;2022-08-05T13:33:08;36.20;92.90
18888;DHT22;9576;47.792;9.628;2022-08-05T13:36:11;36.20;91.80
18888;DHT22;9576;47.792;9.628;2022-08-05T13:39:14;36.30;93.60
18888;DHT22;9576;47.792;9.628;2022-08-05T13:42:16;36.40;95.90
18888;DHT22;9576;47.792;9.628;2022-08-05T13:45:18;36.80;92.00
18888;DHT22;9576;47.792;9.628;2022-08-05T13:48:22;37.40;94.70
18888;DHT22;9576;47.792;9.628;2022-08-05T13:51:32;37.70;91.10
18888;DHT22;9576;47.792;9.628;2022-08-05T13:54:34;37.80;90.00
18888;DHT22;9576;47.792;9.628;2022-08-05T13:57:36;38.10;92.10
18888;DHT22;9576;47.792;9.628;2022-08-05T14:00:38;38.30;92.50
18888;DHT22;9576;47.792;9.628;2022-08-05T14:03:42;38.70;92.90
18888;DHT22;9576;47.792;9.628;2022-08-05T14:06:44;38.70;90.70
18888;DHT22;9576;47.792;9.628;2022-08-05T14:09:46;38.70;88.00
18888;DHT22;9576;47.792;9.628;2022-08-05T14:12:49;38.20;86.50
18888;DHT22;9576;47.792;9.628;2022-08-05T14:15:51;37.40;87.40
18888;DHT22;9576;47.792;9.628;2022-08-05T14:18:54;37.40;90.10
18888;DHT22;9576;47.792;9.628;2022-08-05T14:21:57;37.90;91.30
18888;DHT22;9576;47.792;9.628;2022-08-05T14:24:59;38.50;91.10
18888;DHT22;9576;47.792;9.628;2022-08-05T14:28:01;39.00;88.50
18888;DHT22;9576;47.792;9.628;2022-08-05T14:31:03;39.70;88.10
18888;DHT22;9576;47.792;9.628;2022-08-05T14:34:07;39.20;82.10
18888;DHT22;9576;47.792;9.628;2022-08-05T14:37:09;39.70;90.20
18888;DHT22;9576;47.792;9.628;2022-08-05T14:40:12;40.00;87.60
18888;DHT22;9576;47.792;9.628;2022-08-05T14:43:14;40.70;78.10
18888;DHT22;9576;47.792;9.628;2022-08-05T14:46:16;41.10;77.90
18888;DHT22;9576;47.792;9.628;2022-08-05T14:49:20;40.40;76.10
18888;DHT22;9576;47.792;9.628;2022-08-05T14:52:22;39.60;84.00
18888;DHT22;9576;47.792;9.628;2022-08-05T14:55:25;38.40;80.80
18888;DHT22;9576;47.792;9.628;2022-08-05T14:58:27;37.70;88.70
18888;DHT22;9576;47.792;9.628;2022-08-05T15:01:29;37.40;88.10
18888;DHT22;9576;47.792;9.628;2022-08-05T15:04:33;37.20;83.30
18888;DHT22;9576;47.792;9.628;2022-08-05T15:07:35;36.80;85.10
18888;DHT22;9576;47.792;9.628;2022-08-05T15:10:37;36.10;83.10
18888;DHT22;9576;47.792;9.628;2022-08-05T15:13:41;36.20;92.50
18888;DHT22;9576;47.792;9.628;2022-08-05T15:16:43;35.90;89.40
18888;DHT22;9576;47.792;9.628;2022-08-05T15:19:46;35.80;91.80
18888;DHT22;9576;47.792;9.628;2022-08-05T15:22:49;35.60;91.30
18888;DHT22;9576;47.792;9.628;2022-08-05T15:25:51;35.30;91.70
18888;DHT22;9576;47.792;9.628;2022-08-05T15:28:53;35.00;90.60
18888;DHT22;9576;47.792;9.628;2022-08-05T15:31:55;34.60;89.40
18888;DHT22;9576;47.792;9.628;2022-08-05T15:34:59;34.30;88.10
18888;DHT22;9576;47.792;9.628;2022-08-05T15:38:01;34.10;91.10
18888;DHT22;9576;47.792;9.628;2022-08-05T15:41:03;33.80;86.70
18888;DHT22;9576;47.792;9.628;2022-08-05T15:44:05;33.50;89.60
18888;DHT22;9576;47.792;9.628;2022-08-05T15:47:07;33.20;89.50
18888;DHT22;9576;47.792;9.628;2022-08-05T15:50:13;32.90;89.80
18888;DHT22;9576;47.792;9.628;2022-08-05T15:53:16;32.50;90.50
18888;DHT22;9576;47.792;9.628;2022-08-05T15:56:18;32.40;90.10
18888;DHT22;9576;47.792;9.628;2022-08-05T15:59:20;32.20;91.20
18888;DHT22;9576;47.792;9.628;2022-08-05T16:02:22;32.20;92.40
18888;DHT22;9576;47.792;9.628;2022-08-05T16:05:26;32.00;91.40
18888;DHT22;9576;47.792;9.628;2022-08-05T16:08:28;31.90;92.50
18888;DHT22;9576;47.792;9.628;2022-08-05T16:11:30;31.80;93.50
18888;DHT22;9576;47.792;9.628;2022-08-05T16:14:32;31.80;94.60
18888;DHT22;9576;47.792;9.628;2022-08-05T16:17:34;31.80;95.90
18888;DHT22;9576;47.792;9.628;2022-08-05T16:20:38;31.70;95.40
18888;DHT22;9576;47.792;9.628;2022-08-05T16:23:40;31.60;95.20
18888;DHT22;9576;47.792;9.628;2022-08-05T16:26:49;31.40;95.70
18888;DHT22;9576;47.792;9.628;2022-08-05T16:29:51;31.40;96.60
18888;DHT22;9576;47.792;9.628;2022-08-05T16:32:53;31.30;97.50
18888;DHT22;9576;47.792;9.628;2022-08-05T16:35:57;31.20;97.20
18888;DHT22;9576;47.792;9.628;2022-08-05T16:38:59;30.90;97.40
18888;DHT22;9576;47.792;9.628;2022-08-05T16:42:02;30.60;98.10
18888;DHT22;9576;47.792;9.628;2022-08-05T16:45:05;30.40;98.20
18888;DHT22;9576;47.792;9.628;2022-08-05T16:48:07;30.30;98.80
18888;DHT22;9576;47.792;9.628;2022-08-05T16:51:11;30.10;98.30
18888;DHT22;9576;47.792;9.628;2022-08-05T16:54:14;30.30;98.80
18888;DHT22;9576;47.792;9.628;2022-08-05T16:57:17;30.40;99.20
18888;DHT22;9576;47.792;9.628;2022-08-05T17:00:23;30.60;98.50
18888;DHT22;9576;47.792;9.628;2022-08-05T17:03:25;30.90;98.40
18888;DHT22;9576;47.792;9.628;2022-08-05T17:06:29;31.50;97.30
18888;DHT22;9576;47.792;9.628;2022-08-05T17:09:31;31.70;97.10
18888;DHT22;9576;47.792;9.628;2022-08-05T17:12:33;31.70;97.30
18888;DHT22;9576;47.792;9.628;2022-08-05T17:15:35;31.40;98.00
18888;DHT22;9576;47.792;9.628;2022-08-05T17:18:37;31.00;97.90
18888;DHT22;9576;47.792;9.628;2022-08-05T17:21:41;30.70;99.20
18888;DHT22;9576;47.792;9.628;2022-08-05T17:24:43;30.30;97.00
18888;DHT22;9576;47.792;9.628;2022-08-05T17:27:45;29.50;95.50
18888;DHT22;9576;47.792;9.628;2022-08-05T17:30:47;28.10;96.40
18888;DHT22;9576;47.792;9.628;2022-08-05T17:33:49;27.20;97.00
18888;DHT22;9576;47.792;9.628;2022-08-05T17:36:53;26.60;97.60
18888;DHT22;9576;47.792;9.628;2022-08-05T17:39:55;26.00;98.10
18888;DHT22;9576;47.792;9.628;2022-08-05T17:42:57;25.70;97.70
18888;DHT22;9576;47.792;9.628;2022-08-05T17:45:59;25.10;98.70
18888;DHT22;9576;47.792;9.628;2022-08-05T17:49:02;24.50;99.90
18888;DHT22;9576;47.792;9.628;2022-08-05T17:52:05;24.10;99.90
18888;DHT22;9576;47.792;9.628;2022-08-05T17:55:08;23.90;99.90
18888;DHT22;9576;47.792;9.628;2022-08-05T17:58:12;23.80;99.90
18888;DHT22;9576;47.792;9.628;2022-08-05T18:01:14;23.80;99.90
18888;DHT22;9576;47.792;9.628;2022-08-05T18:04:16;24.00;99.90
18888;DHT22;9576;47.792;9.628;2022-08-05T18:07:20;24.20;99.90
18888;DHT22;9576;47.792;9.628;2022-08-05T18:10:22;24.20;99.90
18888;DHT22;9576;47.792;9.628;2022-08-05T18:13:24;24.30;99.90
18888;DHT22;9576;47.792;9.628;2022-08-05T18:16:27;24.20;99.90
18888;DHT22;9576;47.792;9.628;2022-08-05T18:19:29;24.10;99.90
18888;DHT22;9576;47.792;9.628;2022-08-05T18:22:32;23.90;99.90
18888;DHT22;9576;47.792;9.628;2022-08-05T18:25:34;23.70;99.90
18888;DHT22;9576;47.792;9.628;2022-08-05T18:28:37;23.50;99.90
18888;DHT22;9576;47.792;9.628;2022-08-05T18:31:40;23.20;99.90
18888;DHT22;9576;47.792;9.628;2022-08-05T18:34:43;23.10;99.90
18888;DHT22;9576;47.792;9.628;2022-08-05T18:37:46;22.90;99.90
18888;DHT22;9576;47.792;9.628;2022-08-05T18:40:48;22.90;99.90
18888;DHT22;9576;47.792;9.628;2022-08-05T18:43:51;22.80;99.90
18888;DHT22;9576;47.792;9.628;2022-08-05T18:46:53;22.80;99.90
18888;DHT22;9576;47.792;9.628;2022-08-05T18:49:55;22.70;99.90
18888;DHT22;9576;47.792;9.628;2022-08-05T18:53:28;22.70;99.90
18888;DHT22;9576;47.792;9.628;2022-08-05T18:56:31;22.40;99.90
18888;DHT22;9576;47.792;9.628;2022-08-05T18:59:34;22.20;99.90
18888;DHT22;9576;47.792;9.628;2022-08-05T19:02:36;22.10;99.90
18888;DHT22;9576;47.792;9.628;2022-08-05T19:05:38;21.80;99.90
18888;DHT22;9576;47.792;9.628;2022-08-05T19:08:42;21.20;99.90
18888;DHT22;9576;47.792;9.628;2022-08-05T19:11:44;20.70;99.90
18888;DHT22;9576;47.792;9.628;2022-08-05T19:14:48;20.60;99.90
18888;DHT22;9576;47.792;9.628;2022-08-05T19:17:50;20.60;99.90
18888;DHT22;9576;47.792;9.628;2022-08-05T19:20:53;20.70;99.90
18888;DHT22;9576;47.792;9.628;2022-08-05T19:23:57;20.70;99.90
18888;DHT22;9576;47.792;9.628;2022-08-05T19:26:59;20.70;99.90
18888;DHT22;9576;47.792;9.628;2022-08-05T19:30:06;20.60;99.90
18888;DHT22;9576;47.792;9.628;2022-08-05T19:33:10;20.60;99.90
18888;DHT22;9576;47.792;9.628;2022-08-05T19:36:13;20.40;99.90
18888;DHT22;9576;47.792;9.628;2022-08-05T19:39:17;20.40;99.90